Stellar Pacific — V2QR7 — position and weather

sailwx.info

Track history (hours):
 
Tides and Currents Weather Stations Pressure Air Temp Water Temp Dewpoint Dewpoint Depression Visibility Wind Speed Wind Dir Waves Ship Positions

Stellar Pacific

Last reported at 2019-Feb-16 22:06 UTC. Time now 2019-Feb-23 18:07 UTC.
Position N 36°55' E 002°19'.

Length 135 m; draft 8.5 m.

Type: Cargo ship. MMSI: 304918000.

Date/timePositionNaut miles runAvg speedWind from/ knotsBaromVisibWave heightAir tempDewpointWater temp
2019-Feb-16 22:06N 36°55' E 002°19'1211.1
2019-Feb-16 21:03N 36°56' E 002°34'111.4
2019-Feb-16 21:00N 36°57' E 002°35'611.0
2019-Feb-16 20:30N 36°57' E 002°41'611.1
2019-Feb-16 20:00N 36°58' E 002°48'611.0
2019-Feb-16 19:29N 36°59' E 002°55'610.9
2019-Feb-16 18:57N 36°59' E 003°03'511.1
2019-Feb-16 18:29N 37°00' E 003°09'1911.7
2019-Feb-16 16:50N 37°03' E 003°33'1411.2
2019-Feb-16 15:36N 37°04' E 003°50'1511.0
2019-Feb-16 14:15N 37°06' E 004°08'511.1
2019-Feb-16 13:50N 37°07' E 004°14'811.6
2019-Feb-16 13:07N 37°08' E 004°25'2611.5
2019-Feb-16 10:53N 37°12' E 004°57'44310.8
2019-Feb-14 18:02N 36°44' E 014°10'011.2
2019-Feb-14 18:00N 36°44' E 014°10'510.9
2019-Feb-14 17:30N 36°42' E 014°17'510.7
2019-Feb-14 17:00N 36°41' E 014°23'610.4
2019-Feb-14 16:28N 36°39' E 014°30'  
2019-Feb-12 06:14N 36°57' E 023°26'310.5
2019-Feb-12 05:58N 36°60' E 023°28'19 9.3
2019-Feb-12 03:56N 37°16' E 023°40'4 8.8
2019-Feb-12 03:30N 37°19' E 023°42'5 8.8
2019-Feb-12 02:53N 37°24' E 023°45'5 8.6
2019-Feb-12 02:18N 37°29' E 023°45'3 9.1
2019-Feb-12 02:00N 37°32' E 023°45'5 9.1
2019-Feb-12 01:30N 37°37' E 023°44'5 9.7
2019-Feb-12 01:00N 37°41' E 023°42'510.3
2019-Feb-12 00:30N 37°46' E 023°39'5 9.9
2019-Feb-12 00:00N 37°50' E 023°36'4 8.3
2019-Feb-11 23:30N 37°53' E 023°32'1 1.5
2019-Feb-11 22:59N 37°53' E 023°31'0 0.1
2019-Feb-11 22:29N 37°53' E 023°31'0 0.3
2019-Feb-11 21:56N 37°53' E 023°31'0 0.1
2019-Feb-11 21:29N 37°53' E 023°31'0 0.0
2019-Feb-11 20:59N 37°53' E 023°31'0 0.0
2019-Feb-11 20:29N 37°53' E 023°31'0 0.0
2019-Feb-11 19:59N 37°53' E 023°31'0 0.1
2019-Feb-11 19:29N 37°53' E 023°31'0 0.0
2019-Feb-11 18:59N 37°53' E 023°31'0 0.0
2019-Feb-11 18:29N 37°53' E 023°31'0 0.0
2019-Feb-11 17:56N 37°53' E 023°31'0 0.1
2019-Feb-11 17:29N 37°53' E 023°31'0 0.2
2019-Feb-11 16:59N 37°53' E 023°31'0 0.0
2019-Feb-11 16:29N 37°53' E 023°31'0 0.0
2019-Feb-11 15:59N 37°53' E 023°31'0 0.0
2019-Feb-11 15:29N 37°53' E 023°31'0 0.0
2019-Feb-11 14:59N 37°53' E 023°31'0 0.0
2019-Feb-11 14:29N 37°53' E 023°31'0 0.1
2019-Feb-11 13:59N 37°53' E 023°31'0 0.1
2019-Feb-11 13:29N 37°53' E 023°31'0 0.1
2019-Feb-11 12:59N 37°53' E 023°31'0 0.0
2019-Feb-11 12:29N 37°53' E 023°31'0 0.2
2019-Feb-11 11:59N 37°53' E 023°31'0 0.2
2019-Feb-11 11:29N 37°53' E 023°31'0 0.1
2019-Feb-11 10:59N 37°53' E 023°31'2 5.1
2019-Feb-11 10:30N 37°52' E 023°34'4 9.0
2019-Feb-11 10:01N 37°50' E 023°39'5 9.4
2019-Feb-11 09:30N 37°46' E 023°42'5 9.5
2019-Feb-11 09:00N 37°42' E 023°45'5 9.4
2019-Feb-11 08:30N 37°38' E 023°49'610.6
2019-Feb-11 07:59N 37°35' E 023°54'611.5
2019-Feb-11 07:29N 37°31' E 023°59'  
Track history (hours):
 
Tides and Currents Weather Stations Pressure Air Temp Water Temp Dewpoint Dewpoint Depression Visibility Wind Speed Wind Dir Waves Ship Positions

Stellar Pacific

Last reported at 2019-Feb-16 22:06 UTC. Time now 2019-Feb-23 18:07 UTC.
Position N 36°55' E 002°19'.

Length 135 m; draft 8.5 m.

Type: Cargo ship. MMSI: 304918000.

Date/timePositionNaut miles runAvg speedWind from/ knotsBaromVisibWave heightAir tempDewpointWater temp
2019-Feb-16 22:06N 36°55' E 002°19'1211.1
2019-Feb-16 21:03N 36°56' E 002°34'111.4
2019-Feb-16 21:00N 36°57' E 002°35'611.0
2019-Feb-16 20:30N 36°57' E 002°41'611.1
2019-Feb-16 20:00N 36°58' E 002°48'611.0
2019-Feb-16 19:29N 36°59' E 002°55'610.9
2019-Feb-16 18:57N 36°59' E 003°03'511.1
2019-Feb-16 18:29N 37°00' E 003°09'1911.7
2019-Feb-16 16:50N 37°03' E 003°33'1411.2
2019-Feb-16 15:36N 37°04' E 003°50'1511.0
2019-Feb-16 14:15N 37°06' E 004°08'511.1
2019-Feb-16 13:50N 37°07' E 004°14'811.6
2019-Feb-16 13:07N 37°08' E 004°25'2611.5
2019-Feb-16 10:53N 37°12' E 004°57'44310.8
2019-Feb-14 18:02N 36°44' E 014°10'011.2
2019-Feb-14 18:00N 36°44' E 014°10'510.9
2019-Feb-14 17:30N 36°42' E 014°17'510.7
2019-Feb-14 17:00N 36°41' E 014°23'610.4
2019-Feb-14 16:28N 36°39' E 014°30'  
2019-Feb-12 06:14N 36°57' E 023°26'310.5
2019-Feb-12 05:58N 36°60' E 023°28'19 9.3
2019-Feb-12 03:56N 37°16' E 023°40'4 8.8
2019-Feb-12 03:30N 37°19' E 023°42'5 8.8
2019-Feb-12 02:53N 37°24' E 023°45'5 8.6
2019-Feb-12 02:18N 37°29' E 023°45'3 9.1
2019-Feb-12 02:00N 37°32' E 023°45'5 9.1
2019-Feb-12 01:30N 37°37' E 023°44'5 9.7
2019-Feb-12 01:00N 37°41' E 023°42'510.3
2019-Feb-12 00:30N 37°46' E 023°39'5 9.9
2019-Feb-12 00:00N 37°50' E 023°36'4 8.3
2019-Feb-11 23:30N 37°53' E 023°32'1 1.5
2019-Feb-11 22:59N 37°53' E 023°31'0 0.1
2019-Feb-11 22:29N 37°53' E 023°31'0 0.3
2019-Feb-11 21:56N 37°53' E 023°31'0 0.1
2019-Feb-11 21:29N 37°53' E 023°31'0 0.0
2019-Feb-11 20:59N 37°53' E 023°31'0 0.0
2019-Feb-11 20:29N 37°53' E 023°31'0 0.0
2019-Feb-11 19:59N 37°53' E 023°31'0 0.1
2019-Feb-11 19:29N 37°53' E 023°31'0 0.0
2019-Feb-11 18:59N 37°53' E 023°31'0 0.0
2019-Feb-11 18:29N 37°53' E 023°31'0 0.0
2019-Feb-11 17:56N 37°53' E 023°31'0 0.1
2019-Feb-11 17:29N 37°53' E 023°31'0 0.2
2019-Feb-11 16:59N 37°53' E 023°31'0 0.0
2019-Feb-11 16:29N 37°53' E 023°31'0 0.0
2019-Feb-11 15:59N 37°53' E 023°31'0 0.0
2019-Feb-11 15:29N 37°53' E 023°31'0 0.0
2019-Feb-11 14:59N 37°53' E 023°31'0 0.0
2019-Feb-11 14:29N 37°53' E 023°31'0 0.1
2019-Feb-11 13:59N 37°53' E 023°31'0 0.1
2019-Feb-11 13:29N 37°53' E 023°31'0 0.1
2019-Feb-11 12:59N 37°53' E 023°31'0 0.0
2019-Feb-11 12:29N 37°53' E 023°31'0 0.2
2019-Feb-11 11:59N 37°53' E 023°31'0 0.2
2019-Feb-11 11:29N 37°53' E 023°31'0 0.1
2019-Feb-11 10:59N 37°53' E 023°31'2 5.1
2019-Feb-11 10:30N 37°52' E 023°34'4 9.0
2019-Feb-11 10:01N 37°50' E 023°39'5 9.4
2019-Feb-11 09:30N 37°46' E 023°42'5 9.5
2019-Feb-11 09:00N 37°42' E 023°45'5 9.4
2019-Feb-11 08:30N 37°38' E 023°49'610.6
2019-Feb-11 07:59N 37°35' E 023°54'611.5
2019-Feb-11 07:29N 37°31' E 023°59'  

Dump ship's entire track history